Time;durP1;ratioP1;P1;durP2;ratioP2;P2;SDS_P1;SDS_P2;PMS_P1;PMS_P2;Temp;Humidity;BMP_temperature;BMP_pressure;BME280_temperature;BME280_humidity;BME280_pressure;Samples;Min_cycle;Max_cycle;Signal;HPM_P1;HPM_P2
2022/05/13 00:00:12;;;;;;;3.30;0.10;;;11.80;99.90;;;;;;5016867;28;20025;-75
2022/05/13 00:02:38;;;;;;;2.75;0.17;;;11.80;99.90;;;;;;5015064;28;20037;-76
2022/05/13 00:05:07;;;;;;;5.07;0.57;;;11.80;99.90;;;;;;5016579;28;20068;-76
2022/05/13 00:07:33;;;;;;;4.85;0.22;;;11.90;99.90;;;;;;5015256;28;20025;-76
2022/05/13 00:10:05;;;;;;;8.82;0.25;;;12.00;99.90;;;;;;5016717;28;20397;-76
2022/05/13 00:12:36;;;;;;;3.72;0.10;;;12.20;99.90;;;;;;5016514;28;20532;-76
2022/05/13 00:15:02;;;;;;;5.15;0.00;;;11.90;99.90;;;;;;5017130;28;20489;-76
2022/05/13 00:17:28;;;;;;;4.18;0.40;;;12.00;99.90;;;;;;5016718;28;20021;-76
2022/05/13 00:19:54;;;;;;;4.05;0.00;;;12.90;99.90;;;;;;5016511;28;20461;-76
2022/05/13 00:22:21;;;;;;;8.65;0.20;;;12.10;99.90;;;;;;5016373;28;20483;-76
2022/05/13 00:24:47;;;;;;;2.63;0.00;;;12.10;99.90;;;;;;5014866;28;20033;-76
2022/05/13 00:27:13;;;;;;;5.03;0.17;;;12.10;99.90;;;;;;5016595;28;20466;-76
2022/05/13 00:29:39;;;;;;;4.28;0.32;;;12.10;99.90;;;;;;5015739;28;20025;-76
2022/05/13 00:32:06;;;;;;;2.60;0.13;;;12.10;99.90;;;;;;5016087;28;20029;-76
2022/05/13 00:34:33;;;;;;;4.07;0.00;;;12.10;99.90;;;;;;5016167;28;20033;-76
2022/05/13 00:36:59;;;;;;;1.30;0.00;;;12.00;99.90;;;;;;5014368;28;20104;-75
2022/05/13 00:39:25;;;;;;;1.45;0.28;;;12.10;99.90;;;;;;5014671;28;20034;-76
2022/05/13 00:41:53;;;;;;;5.70;0.20;;;12.00;99.90;;;;;;5014745;28;20026;-76
2022/05/13 00:44:19;;;;;;;2.72;0.00;;;12.00;99.90;;;;;;5015765;28;20553;-75
2022/05/13 00:46:46;;;;;;;7.70;0.80;;;12.00;99.90;;;;;;5015427;28;20049;-75
2022/05/13 00:49:14;;;;;;;4.55;0.10;;;12.00;99.90;;;;;;5013673;28;20026;-75
2022/05/13 00:51:45;;;;;;;6.15;0.10;;;12.00;99.90;;;;;;5014383;28;20057;-75
2022/05/13 00:54:14;;;;;;;3.58;0.10;;;12.00;99.90;;;;;;5014218;28;20559;-75
2022/05/13 00:56:43;;;;;;;10.52;0.80;;;12.00;99.90;;;;;;5015630;28;20022;-75
2022/05/13 00:59:13;;;;;;;3.55;0.13;;;12.10;99.90;;;;;;5014951;28;20028;-75
2022/05/13 01:01:39;;;;;;;4.28;0.20;;;12.00;99.90;;;;;;5015806;28;20026;-75
2022/05/13 01:04:08;;;;;;;6.18;0.10;;;12.00;99.90;;;;;;5015664;28;20461;-75
2022/05/13 01:06:34;;;;;;;3.53;0.10;;;12.00;99.90;;;;;;5014441;28;20079;-75
2022/05/13 01:09:00;;;;;;;4.20;0.57;;;12.10;99.90;;;;;;5013984;28;20069;-75
2022/05/13 01:11:29;;;;;;;3.17;0.57;;;12.00;99.90;;;;;;5015557;28;20523;-76
2022/05/13 01:14:01;;;;;;;8.43;0.40;;;12.00;99.90;;;;;;5015163;28;20472;-75
2022/05/13 01:16:27;;;;;;;5.45;0.22;;;11.90;99.90;;;;;;5013735;28;20057;-75
2022/05/13 01:18:53;;;;;;;3.30;0.10;;;11.90;99.90;;;;;;5015424;28;20092;-75
2022/05/13 01:21:25;;;;;;;3.15;0.17;;;11.90;99.90;;;;;;5013774;28;20049;-75
2022/05/13 01:23:52;;;;;;;7.28;0.10;;;12.00;99.90;;;;;;5015914;28;20035;-75
2022/05/13 01:26:25;;;;;;;5.15;0.28;;;12.00;99.90;;;;;;5014979;28;20034;-75
2022/05/13 01:28:55;;;;;;;4.45;0.28;;;12.00;99.90;;;;;;5014925;28;20022;-75
2022/05/13 01:31:23;;;;;;;7.10;0.40;;;12.00;99.90;;;;;;5014792;28;20033;-75
2022/05/13 01:33:49;;;;;;;12.10;0.95;;;12.00;99.90;;;;;;5014453;28;20034;-75
2022/05/13 01:36:15;;;;;;;6.32;0.52;;;12.00;99.90;;;;;;5014216;28;20457;-75
2022/05/13 01:38:41;;;;;;;5.22;0.38;;;11.90;99.90;;;;;;5013541;28;20037;-75
2022/05/13 01:41:09;;;;;;;9.18;0.20;;;11.90;99.90;;;;;;5015572;28;20050;-75
2022/05/13 01:43:36;;;;;;;11.15;0.63;;;12.00;99.90;;;;;;5014892;28;20377;-75
2022/05/13 01:46:03;;;;;;;4.95;0.50;;;12.00;99.90;;;;;;5014890;28;20022;-75
2022/05/13 01:48:29;;;;;;;10.38;0.75;;;12.30;99.90;;;;;;5014868;28;20030;-75
2022/05/13 01:50:55;;;;;;;5.13;0.32;;;12.00;99.90;;;;;;5014786;28;20524;-75
2022/05/13 01:53:21;;;;;;;4.03;0.28;;;12.10;99.90;;;;;;5015103;28;20111;-75
2022/05/13 01:55:47;;;;;;;7.18;1.20;;;12.10;99.90;;;;;;5015193;28;20105;-75
2022/05/13 01:58:19;;;;;;;9.23;1.23;;;12.10;99.90;;;;;;5015190;28;20026;-75
2022/05/13 02:00:47;;;;;;;5.93;0.43;;;12.20;99.90;;;;;;5016746;28;20033;-75
2022/05/13 02:05:57;;;;;;;3.95;0.38;;;12.20;99.90;;;;;;5019855;28;20049;-76
2022/05/13 02:08:24;;;;;;;10.27;0.90;;;12.20;99.90;;;;;;5017983;28;20030;-76
2022/05/13 02:10:50;;;;;;;2.75;0.30;;;12.20;99.90;;;;;;5019153;28;20080;-76
2022/05/13 02:13:16;;;;;;;6.65;0.30;;;12.20;99.90;;;;;;5018582;28;20030;-75
2022/05/13 02:15:42;;;;;;;7.18;0.20;;;12.20;99.90;;;;;;5018847;28;20022;-75
2022/05/13 02:18:10;;;;;;;4.30;0.20;;;12.20;99.90;;;;;;5017300;28;20068;-75
2022/05/13 02:20:37;;;;;;;12.15;1.50;;;12.20;99.90;;;;;;5018458;28;20014;-75
2022/05/13 02:23:03;;;;;;;7.47;0.75;;;12.20;99.90;;;;;;5018155;28;20060;-75
2022/05/13 02:25:32;;;;;;;7.32;0.28;;;12.20;99.90;;;;;;5017277;28;20026;-75
2022/05/13 02:27:58;;;;;;;8.30;0.75;;;12.20;99.90;;;;;;5018492;28;20108;-75
2022/05/13 02:30:25;;;;;;;12.55;0.73;;;12.20;99.90;;;;;;5018522;28;20030;-75
2022/05/13 02:32:50;;;;;;;14.35;0.65;;;12.20;99.90;;;;;;5018251;28;20040;-75
2022/05/13 02:35:16;;;;;;;6.53;0.57;;;13.40;99.90;;;;;;5018773;28;20026;-75
2022/05/13 02:37:42;;;;;;;5.38;0.40;;;12.20;99.90;;;;;;5018170;28;20109;-75
2022/05/13 02:40:08;;;;;;;9.93;0.98;;;12.20;99.90;;;;;;5018779;28;20473;-75
2022/05/13 02:42:34;;;;;;;15.55;1.67;;;12.30;99.90;;;;;;5018543;28;20032;-74
2022/05/13 02:45:00;;;;;;;5.78;1.02;;;12.30;99.90;;;;;;5018473;28;20013;-75
2022/05/13 02:47:26;;;;;;;12.85;0.65;;;12.30;99.90;;;;;;5017649;28;20033;-75
2022/05/13 02:50:17;;;;;;;10.45;1.38;;;12.30;99.90;;;;;;5018502;28;20018;-76
2022/05/13 02:52:38;;;;;;;10.50;1.13;;;12.80;99.90;;;;;;5018611;28;20080;-75
2022/05/13 02:55:06;;;;;;;7.65;0.90;;;12.30;99.90;;;;;;5018769;28;20022;-76
2022/05/13 02:57:32;;;;;;;23.67;1.85;;;12.30;99.90;;;;;;5018321;28;20021;-76
2022/05/13 02:59:59;;;;;;;11.15;1.73;;;12.20;99.90;;;;;;5018418;28;20021;-75
2022/05/13 03:02:25;;;;;;;6.45;0.80;;;12.20;99.90;;;;;;5017379;28;20022;-75
2022/05/13 03:04:54;;;;;;;7.40;0.90;;;12.10;99.90;;;;;;5017223;28;20026;-75
2022/05/13 03:07:20;;;;;;;9.77;1.38;;;12.10;99.90;;;;;;5017405;28;20030;-75
2022/05/13 03:09:46;;;;;;;9.38;0.73;;;12.00;99.90;;;;;;5017855;28;20022;-75
2022/05/13 03:12:12;;;;;;;6.05;1.50;;;12.00;99.90;;;;;;5016579;28;20025;-75
2022/05/13 03:14:38;;;;;;;13.48;1.58;;;12.00;99.90;;;;;;5017491;28;20117;-73
2022/05/13 03:17:05;;;;;;;8.77;1.25;;;12.00;99.90;;;;;;5017962;28;20022;-73
2022/05/13 03:19:31;;;;;;;7.95;0.77;;;11.90;99.90;;;;;;5017603;28;20431;-73
2022/05/13 03:21:57;;;;;;;10.77;1.23;;;11.90;99.90;;;;;;5017710;28;20100;-73
2022/05/13 03:24:23;;;;;;;10.43;0.85;;;11.80;99.90;;;;;;5018358;28;20032;-72
2022/05/13 03:26:50;;;;;;;13.35;1.70;;;11.90;99.90;;;;;;5016346;28;20033;-72
2022/05/13 03:29:15;;;;;;;9.52;1.67;;;11.90;99.90;;;;;;5016520;28;20056;-72
2022/05/13 03:31:41;;;;;;;16.48;1.45;;;11.90;99.90;;;;;;5018421;28;20025;-73
2022/05/13 03:34:06;;;;;;;15.90;1.45;;;11.90;99.90;;;;;;5016436;28;20129;-73
2022/05/13 03:36:32;;;;;;;15.82;1.52;;;11.90;99.90;;;;;;5016587;28;20465;-73
2022/05/13 03:38:58;;;;;;;7.97;2.25;;;11.90;99.90;;;;;;5016622;28;20022;-72
2022/05/13 03:41:23;;;;;;;7.93;0.95;;;11.90;99.90;;;;;;5017850;28;20018;-72
2022/05/13 03:43:49;;;;;;;10.45;1.60;;;11.90;99.90;;;;;;5017235;28;20022;-72
2022/05/13 03:46:15;;;;;;;17.70;1.20;;;11.90;99.90;;;;;;5017133;28;20030;-71
2022/05/13 03:48:40;;;;;;;9.93;0.70;;;11.90;99.90;;;;;;5016879;28;20069;-72
2022/05/13 03:51:07;;;;;;;8.48;1.58;;;11.90;99.90;;;;;;5017152;28;20029;-72
2022/05/13 03:53:33;;;;;;;14.73;0.88;;;11.90;99.90;;;;;;5016714;28;20018;-74
2022/05/13 03:56:04;;;;;;;11.98;1.30;;;11.80;99.90;;;;;;5016713;28;20377;-73
2022/05/13 03:58:30;;;;;;;10.77;1.52;;;11.90;99.90;;;;;;5016403;28;20088;-73
2022/05/13 04:00:57;;;;;;;7.90;0.40;;;11.90;99.90;;;;;;5016242;28;20022;-73
2022/05/13 04:03:23;;;;;;;12.93;1.60;;;11.80;99.90;;;;;;5017346;28;20038;-74
2022/05/13 04:11:17;;;;;;;11.20;0.95;;;11.90;99.90;;;;;;5017947;28;20084;-73
2022/05/13 04:16:28;;;;;;;11.60;0.88;;;11.90;99.90;;;;;;5017230;28;20543;-73
2022/05/13 04:18:54;;;;;;;10.60;1.50;;;11.90;99.90;;;;;;5016492;28;20022;-73
2022/05/13 04:21:32;;;;;;;9.32;1.05;;;11.90;99.90;;;;;;5016454;28;20018;-73
2022/05/13 04:24:01;;;;;;;4.80;1.08;;;11.90;99.90;;;;;;5014806;28;20029;-72
2022/05/13 04:26:27;;;;;;;8.80;1.20;;;11.90;99.90;;;;;;5016837;28;20430;-72
2022/05/13 04:28:55;;;;;;;5.22;1.10;;;12.00;99.90;;;;;;5015798;28;20401;-73
2022/05/13 04:31:25;;;;;;;10.88;1.35;;;12.00;99.90;;;;;;5015738;28;20502;-73
2022/05/13 04:33:51;;;;;;;6.95;0.77;;;12.00;99.90;;;;;;5016431;28;20448;-73
2022/05/13 04:36:17;;;;;;;10.65;1.40;;;11.90;99.90;;;;;;5016673;28;20049;-73
2022/05/13 04:38:45;;;;;;;10.50;1.70;;;11.90;99.90;;;;;;5016934;28;20022;-72
2022/05/13 04:43:57;;;;;;;11.25;1.00;;;11.80;99.90;;;;;;5016911;28;20041;-73
2022/05/13 04:46:23;;;;;;;8.55;0.75;;;11.90;99.90;;;;;;5014954;28;20072;-73
2022/05/13 04:48:51;;;;;;;9.13;1.20;;;11.90;99.90;;;;;;5014827;28;20026;-73
2022/05/13 04:51:18;;;;;;;4.47;0.73;;;11.90;99.90;;;;;;5016411;28;20578;-73
2022/05/13 04:53:44;;;;;;;9.52;1.13;;;11.80;99.90;;;;;;5016969;28;20840;-74
2022/05/13 04:56:10;;;;;;;8.57;1.45;;;11.80;99.90;;;;;;5016888;28;20026;-74
2022/05/13 04:58:37;;;;;;;9.50;0.85;;;11.90;99.90;;;;;;5016691;28;20029;-74
2022/05/13 05:01:07;;;;;;;11.45;2.42;;;12.00;99.90;;;;;;5016433;28;20033;-74
2022/05/13 05:03:32;;;;;;;7.60;0.77;;;12.10;99.90;;;;;;5015053;28;20072;-75
2022/05/13 05:06:00;;;;;;;7.55;0.95;;;12.10;99.90;;;;;;5015978;28;20030;-73
2022/05/13 05:08:27;;;;;;;6.28;0.47;;;12.20;99.90;;;;;;5016232;28;20026;-73
2022/05/13 05:10:53;;;;;;;7.65;1.00;;;12.30;99.90;;;;;;5014877;28;20061;-73
2022/05/13 05:13:31;;;;;;;4.50;0.80;;;12.50;99.90;;;;;;5015450;28;20065;-73
2022/05/13 05:15:57;;;;;;;4.80;0.50;;;12.60;99.90;;;;;;5015879;28;20021;-73
2022/05/13 05:18:23;;;;;;;11.82;1.38;;;12.60;99.90;;;;;;5016477;28;20021;-73
2022/05/13 05:20:50;;;;;;;11.27;1.17;;;12.70;99.90;;;;;;5013915;28;20507;-73
2022/05/13 05:23:38;;;;;;;7.65;0.20;;;12.90;99.90;;;;;;5014771;28;20053;-73
2022/05/13 05:26:05;;;;;;;5.82;0.55;;;13.10;99.90;;;;;;5015252;28;20381;-75
2022/05/13 05:28:32;;;;;;;4.97;0.63;;;13.20;99.90;;;;;;5013721;28;20033;-73
2022/05/13 05:31:02;;;;;;;9.80;0.40;;;13.40;99.90;;;;;;5013316;28;20403;-74
2022/05/13 05:33:29;;;;;;;4.38;0.40;;;13.50;99.90;;;;;;5014834;28;20536;-74
2022/05/13 05:35:56;;;;;;;3.72;0.63;;;13.60;99.90;;;;;;5014987;28;20089;-73
2022/05/13 05:38:21;;;;;;;11.15;0.77;;;13.60;99.90;;;;;;5015314;28;20026;-74
2022/05/13 05:40:47;;;;;;;6.88;0.52;;;14.80;99.90;;;;;;5015692;28;20544;-74
2022/05/13 05:43:15;;;;;;;6.53;0.20;;;13.70;99.90;;;;;;5015327;28;20432;-74
2022/05/13 05:45:43;;;;;;;12.00;0.40;;;14.20;99.90;;;;;;5014637;28;20034;-75
2022/05/13 05:48:11;;;;;;;7.57;0.73;;;13.80;99.90;;;;;;5015549;28;20026;-74
2022/05/13 05:50:41;;;;;;;9.00;0.88;;;13.90;99.90;;;;;;5013856;28;20022;-74
2022/05/13 05:53:06;;;;;;;4.70;0.30;;;13.90;99.90;;;;;;5014062;28;20022;-75
2022/05/13 05:58:19;;;;;;;9.40;1.38;;;14.00;99.90;;;;;;5015890;28;20040;-74
2022/05/13 06:00:49;;;;;;;8.32;0.35;;;13.90;99.90;;;;;;5015567;28;20392;-74
2022/05/13 06:03:16;;;;;;;7.82;0.70;;;13.90;99.90;;;;;;5014544;28;20022;-74
2022/05/13 06:05:46;;;;;;;8.15;0.25;;;13.90;99.90;;;;;;5014107;28;20076;-74
2022/05/13 06:08:12;;;;;;;6.35;0.40;;;13.90;99.90;;;;;;5015487;28;20018;-75
2022/05/13 06:10:37;;;;;;;4.22;0.25;;;13.80;99.90;;;;;;5015871;28;20033;-75
2022/05/13 06:13:05;;;;;;;4.05;0.55;;;13.70;99.90;;;;;;5015360;28;20473;-74
2022/05/13 06:15:31;;;;;;;8.30;0.43;;;13.80;99.90;;;;;;5015197;28;20078;-72
2022/05/13 06:17:57;;;;;;;2.88;0.45;;;13.90;99.90;;;;;;5015300;28;20018;-72
2022/05/13 06:20:26;;;;;;;4.43;0.47;;;13.90;99.90;;;;;;5014475;28;20033;-73
2022/05/13 06:22:52;;;;;;;3.00;0.43;;;13.90;99.90;;;;;;5015611;28;20109;-73
2022/05/13 06:25:22;;;;;;;4.25;0.38;;;13.90;99.90;;;;;;5015809;28;20444;-73
2022/05/13 06:27:49;;;;;;;5.38;0.10;;;14.00;99.90;;;;;;5015734;28;20026;-73
2022/05/13 06:30:27;;;;;;;1.38;0.22;;;14.00;99.90;;;;;;5014993;28;20026;-73
2022/05/13 06:32:53;;;;;;;2.78;0.08;;;14.10;99.90;;;;;;5013991;28;20109;-73
2022/05/13 06:35:20;;;;;;;4.47;0.50;;;14.20;99.90;;;;;;5015000;28;20026;-74
2022/05/13 06:37:46;;;;;;;1.88;0.08;;;14.30;99.90;;;;;;5014547;28;20018;-74
2022/05/13 06:40:12;;;;;;;2.60;0.15;;;16.00;99.90;;;;;;5014937;28;20018;-73
2022/05/13 06:42:38;;;;;;;2.05;0.00;;;14.50;99.90;;;;;;5015181;28;20170;-74
2022/05/13 06:45:06;;;;;;;2.50;0.00;;;14.60;99.90;;;;;;5014728;28;20018;-73
2022/05/13 06:47:32;;;;;;;1.42;0.20;;;14.60;99.90;;;;;;5017310;28;20018;-74
2022/05/13 06:50:06;;;;;;;3.60;0.00;;;14.50;99.90;;;;;;5017913;28;20022;-75
2022/05/13 06:52:34;;;;;;;5.03;0.32;;;14.60;99.90;;;;;;5017836;28;20026;-73
2022/05/13 06:55:00;;;;;;;4.45;0.00;;;14.70;99.90;;;;;;5017208;28;20049;-73
2022/05/13 06:57:27;;;;;;;2.90;0.28;;;15.00;99.90;;;;;;5018241;28;20018;-74
2022/05/13 06:59:52;;;;;;;2.20;0.10;;;15.10;99.90;;;;;;5018322;28;20026;-73
2022/05/13 07:02:19;;;;;;;2.75;0.00;;;15.00;99.90;;;;;;5017361;28;20018;-75
2022/05/13 07:04:45;;;;;;;2.58;0.00;;;15.00;99.90;;;;;;5010230;28;20030;-73
2022/05/13 07:07:12;;;;;;;2.42;0.00;;;15.40;99.90;;;;;;4997452;28;20018;-74
2022/05/13 07:09:37;;;;;;;4.85;0.73;;;15.10;99.90;;;;;;5064994;23;20053;-76
2022/05/13 07:12:04;;;;;;;5.30;0.00;;;15.20;99.90;;;;;;5054881;28;20066;-76
2022/05/13 07:14:29;;;;;;;2.70;0.00;;;15.30;99.90;;;;;;5037642;28;20033;-76
2022/05/13 07:16:55;;;;;;;3.50;0.32;;;15.40;99.90;;;;;;5034474;28;20515;-76
2022/05/13 07:19:22;;;;;;;1.35;0.00;;;15.70;99.90;;;;;;5034933;28;20384;-76
2022/05/13 07:21:48;;;;;;;8.32;0.40;;;15.80;99.90;;;;;;5036464;28;20049;-76
2022/05/13 07:24:13;;;;;;;8.45;0.45;;;15.60;99.90;;;;;;5038355;28;20070;-76
2022/05/13 07:26:39;;;;;;;2.22;0.03;;;15.60;99.90;;;;;;5038218;28;20022;-76
2022/05/13 07:29:05;;;;;;;4.50;0.43;;;15.70;99.90;;;;;;5036450;28;20033;-75
2022/05/13 07:31:31;;;;;;;3.38;0.05;;;15.70;99.90;;;;;;5037250;28;20099;-74
2022/05/13 07:33:57;;;;;;;4.78;0.50;;;16.00;99.90;;;;;;5045583;23;20099;-73
2022/05/13 07:36:22;;;;;;;5.30;0.45;;;16.10;99.90;;;;;;5035644;28;20524;-73
2022/05/13 07:41:32;;;;;;;5.63;0.10;;;16.10;99.90;;;;;;5037024;28;20097;-74
2022/05/13 07:43:58;;;;;;;4.13;0.32;;;16.00;99.90;;;;;;5036707;28;20033;-75
2022/05/13 07:46:24;;;;;;;8.07;0.28;;;15.90;99.90;;;;;;5035786;28;20048;-74
2022/05/13 07:48:51;;;;;;;2.30;0.10;;;15.90;99.90;;;;;;5033775;28;20023;-75
2022/05/13 07:51:17;;;;;;;6.30;0.17;;;16.00;99.90;;;;;;5033932;28;20022;-74
2022/05/13 07:53:43;;;;;;;1.95;0.20;;;15.90;99.90;;;;;;5035503;28;20029;-75
2022/05/13 07:56:09;;;;;;;4.30;0.03;;;16.00;99.90;;;;;;5035670;28;20025;-74
2022/05/13 07:58:35;;;;;;;1.65;0.50;;;16.10;99.90;;;;;;5035609;28;20032;-74
2022/05/13 08:01:02;;;;;;;4.00;0.10;;;16.20;99.90;;;;;;5034103;28;20075;-72
2022/05/13 08:03:30;;;;;;;4.20;0.50;;;16.30;99.90;;;;;;5035228;28;20488;-74
2022/05/13 08:06:02;;;;;;;1.48;0.00;;;16.60;99.90;;;;;;5034046;28;20061;-73
2022/05/13 08:08:33;;;;;;;1.67;0.00;;;16.60;99.90;;;;;;5036030;28;20022;-73
2022/05/13 08:11:01;;;;;;;2.28;0.30;;;16.60;99.90;;;;;;5033824;28;20468;-73
2022/05/13 08:13:31;;;;;;;0.15;0.00;;;16.60;99.90;;;;;;5035030;28;20550;-74
2022/05/13 08:16:06;;;;;;;2.55;0.30;;;16.60;99.90;;;;;;5034756;28;20029;-74
2022/05/13 08:18:33;;;;;;;2.88;0.15;;;16.70;99.90;;;;;;5035404;28;20017;-74
2022/05/13 08:20:59;;;;;;;1.20;0.30;;;16.80;99.90;;;;;;5033551;28;20022;-73
2022/05/13 08:23:25;;;;;;;3.33;0.00;;;16.80;99.90;;;;;;5034870;28;20061;-73
2022/05/13 08:25:51;;;;;;;4.72;0.45;;;16.80;99.90;;;;;;5033602;28;20056;-74
2022/05/13 08:28:18;;;;;;;3.00;0.30;;;17.00;99.90;;;;;;5035005;28;20024;-74
2022/05/13 08:30:44;;;;;;;3.90;0.60;;;16.80;99.90;;;;;;5035043;28;20087;-74
2022/05/13 08:35:41;;;;;;;3.93;0.00;;;17.20;99.90;;;;;;5032755;28;20526;-77
2022/05/13 08:38:08;;;;;;;1.58;0.00;;;17.10;99.90;;;;;;5034596;28;20023;-77
2022/05/13 08:40:49;;;;;;;1.42;0.08;;;17.10;99.90;;;;;;5034150;28;20032;-77
2022/05/13 08:43:24;;;;;;;4.13;0.10;;;17.00;99.90;;;;;;5034293;28;20483;-77
2022/05/13 08:45:56;;;;;;;3.42;0.05;;;17.00;99.90;;;;;;5034375;28;20476;-77
2022/05/13 08:48:33;;;;;;;3.75;0.10;;;17.10;99.90;;;;;;5034134;28;20029;-77
2022/05/13 08:51:02;;;;;;;3.20;0.40;;;17.10;99.90;;;;;;5034377;28;20037;-77
2022/05/13 08:53:47;;;;;;;2.80;0.28;;;17.10;99.90;;;;;;5028639;28;20026;-80
2022/05/13 08:56:19;;;;;;;3.83;0.20;;;17.30;99.90;;;;;;5038029;28;20029;-80
2022/05/13 08:58:49;;;;;;;1.75;0.17;;;17.70;99.90;;;;;;5037290;28;20025;-81
2022/05/13 09:01:25;;;;;;;1.63;0.15;;;19.00;99.50;;;;;;5034521;28;20076;-81
2022/05/13 09:03:57;;;;;;;3.55;0.45;;;17.40;99.80;;;;;;5035591;28;20022;-80
2022/05/13 09:06:49;;;;;;;6.22;0.00;;;17.30;99.60;;;;;;5029343;28;20563;-81
2022/05/13 09:09:15;;;;;;;3.65;0.00;;;17.00;99.90;;;;;;5034408;28;20085;-80
2022/05/13 09:11:50;;;;;;;1.13;0.00;;;17.00;99.90;;;;;;5032993;28;20057;-80
2022/05/13 09:14:36;;;;;;;2.88;0.00;;;17.30;99.90;;;;;;5026886;28;20480;-80
2022/05/13 09:17:22;;;;;;;6.57;0.52;;;17.40;98.20;;;;;;4982197;28;20065;-81
2022/05/13 09:19:57;;;;;;;2.47;0.03;;;17.50;99.70;;;;;;5034742;28;20022;-81
2022/05/13 09:22:30;;;;;;;4.47;0.30;;;17.40;99.70;;;;;;5034480;28;20179;-79
2022/05/13 09:24:56;;;;;;;3.55;0.35;;;17.40;99.90;;;;;;5036811;28;20032;-81
2022/05/13 09:27:21;;;;;;;1.52;0.00;;;17.30;99.90;;;;;;5034461;28;20459;-81
2022/05/13 09:29:47;;;;;;;0.65;0.17;;;17.30;99.90;;;;;;5037557;28;20036;-79
2022/05/13 09:32:36;;;;;;;4.22;0.10;;;17.20;99.90;;;;;;5035877;28;20103;-81
2022/05/13 09:35:28;;;;;;;1.95;0.10;;;17.30;99.90;;;;;;5037830;28;20120;-78
2022/05/13 09:37:54;;;;;;;3.30;0.00;;;17.00;99.50;;;;;;5033069;28;20037;-77
2022/05/13 09:40:24;;;;;;;3.72;0.10;;;17.00;99.80;;;;;;5030619;28;20026;-77
2022/05/13 09:42:53;;;;;;;2.75;0.15;;;17.20;99.50;;;;;;5032710;28;20476;-77
2022/05/13 09:45:25;;;;;;;2.05;0.00;;;17.60;97.60;;;;;;5031581;28;20537;-77
2022/05/13 09:48:17;;;;;;;3.47;0.55;;;17.50;95.40;;;;;;5032309;28;20030;-76
2022/05/13 09:50:55;;;;;;;1.55;0.00;;;17.40;97.50;;;;;;5029722;28;20029;-76
2022/05/13 09:53:21;;;;;;;5.80;0.20;;;17.50;98.20;;;;;;5029500;28;20030;-76
2022/05/13 09:55:52;;;;;;;3.75;0.43;;;17.70;99.70;;;;;;5024034;28;20080;-77
2022/05/13 09:58:23;;;;;;;2.65;0.52;;;18.00;97.70;;;;;;5023475;28;20029;-76
2022/05/13 10:00:53;;;;;;;2.35;0.00;;;18.00;95.00;;;;;;5026709;28;20108;-77
2022/05/13 10:03:22;;;;;;;2.60;0.05;;;17.60;95.20;;;;;;5028997;28;20484;-76
2022/05/13 10:06:01;;;;;;;2.15;0.00;;;17.80;96.80;;;;;;5030507;28;20021;-77
2022/05/13 10:08:27;;;;;;;;;;;17.60;94.80;;;;;;5029752;28;20373;-76
2022/05/13 10:14:03;;;;;;;2.00;0.00;;;17.20;95.50;;;;;;5031732;28;20043;-76
2022/05/13 10:16:28;;;;;;;1.80;0.00;;;17.00;95.90;;;;;;5022858;28;20057;-77
2022/05/13 10:19:19;;;;;;;4.47;0.20;;;17.10;97.80;;;;;;5024539;28;20472;-76
2022/05/13 10:21:55;;;;;;;2.25;0.55;;;17.10;97.20;;;;;;5033922;28;20033;-75
2022/05/13 10:24:33;;;;;;;2.25;0.03;;;17.10;96.20;;;;;;5035040;28;20446;-77
2022/05/13 10:27:01;;;;;;;3.60;0.52;;;17.10;98.20;;;;;;5036083;28;20021;-77
2022/05/13 10:29:37;;;;;;;5.20;0.30;;;17.10;96.80;;;;;;5030566;28;20041;-77
2022/05/13 10:32:11;;;;;;;1.73;0.00;;;17.00;95.90;;;;;;5021721;28;20064;-77
2022/05/13 10:34:41;;;;;;;5.00;0.30;;;17.10;97.80;;;;;;5036347;28;20474;-77
2022/05/13 10:37:51;;;;;;;4.88;0.38;;;17.70;99.90;;;;;;5035012;28;20083;-77
2022/05/13 10:40:20;;;;;;;6.82;0.30;;;18.40;93.80;;;;;;4920558;29;20027;-77
2022/05/13 10:43:07;;;;;;;2.20;0.00;;;19.00;92.40;;;;;;4921002;29;20024;-77
2022/05/13 10:45:35;;;;;;;3.33;0.40;;;19.30;85.90;;;;;;5001779;28;20048;-77
2022/05/13 10:48:05;;;;;;;4.35;0.32;;;18.90;88.00;;;;;;5034151;28;20025;-77
2022/05/13 10:50:56;;;;;;;3.10;0.15;;;19.10;89.00;;;;;;5032340;28;20460;-77
2022/05/13 10:53:30;;;;;;;3.70;0.00;;;19.10;85.70;;;;;;5034677;28;20088;-77
2022/05/13 10:56:08;;;;;;;2.60;0.00;;;19.00;84.80;;;;;;5026746;28;20045;-76
2022/05/13 10:58:49;;;;;;;1.65;0.10;;;18.70;84.20;;;;;;5032748;28;20029;-77
2022/05/13 11:01:27;;;;;;;4.28;0.20;;;18.40;84.60;;;;;;5033046;28;20505;-76
2022/05/13 11:04:01;;;;;;;1.27;0.17;;;18.20;90.20;;;;;;5045442;28;20408;-76
2022/05/13 11:06:51;;;;;;;3.67;0.10;;;18.10;86.20;;;;;;5016160;28;20029;-77
2022/05/13 11:09:34;;;;;;;1.85;0.05;;;18.00;86.00;;;;;;5025635;28;20050;-76
2022/05/13 11:12:29;;;;;;;3.13;0.00;;;17.90;90.40;;;;;;5034424;28;20033;-76
2022/05/13 11:14:55;;;;;;;1.92;0.00;;;18.00;86.00;;;;;;5025447;28;20037;-77
2022/05/13 11:17:33;;;;;;;5.68;0.00;;;18.00;91.40;;;;;;5035789;28;20017;-76
2022/05/13 11:20:28;;;;;;;1.88;0.32;;;18.20;90.60;;;;;;5033772;28;20400;-77
2022/05/13 11:23:00;;;;;;;1.17;0.00;;;18.70;90.20;;;;;;5032003;28;20175;-77
2022/05/13 11:25:56;;;;;;;2.40;0.10;;;19.20;83.80;;;;;;5033777;28;20017;-77
2022/05/13 11:28:54;;;;;;;2.08;0.00;;;19.40;84.60;;;;;;5026071;28;20439;-77
2022/05/13 11:31:47;;;;;;;1.10;0.00;;;19.30;82.80;;;;;;5026847;28;20022;-77
2022/05/13 11:34:27;;;;;;;2.28;0.00;;;19.60;74.50;;;;;;5018577;28;20571;-77
2022/05/13 11:36:56;;;;;;;0.70;0.00;;;19.90;77.10;;;;;;5021775;28;20022;-77
2022/05/13 11:39:30;;;;;;;;;;;19.90;77.10;;;;;;5021635;28;20113;-77
2022/05/13 11:41:55;;;;;;;4.63;0.30;;;19.70;71.50;;;;;;5030218;28;19999;-77
2022/05/13 11:44:37;;;;;;;0.52;0.08;;;19.50;71.20;;;;;;5031607;28;20150;-77
2022/05/13 11:47:18;;;;;;;2.03;0.08;;;19.80;70.50;;;;;;5034056;28;20112;-77
2022/05/13 11:49:46;;;;;;;3.92;0.00;;;19.50;70.40;;;;;;5035514;28;20120;-77
2022/05/13 11:52:11;;;;;;;1.02;0.00;;;19.70;72.50;;;;;;5035070;28;20030;-76
2022/05/13 11:54:40;;;;;;;3.45;0.20;;;19.80;70.50;;;;;;5035040;28;20595;-76
2022/05/13 11:57:25;;;;;;;0.40;0.00;;;20.20;70.90;;;;;;5035649;28;20028;-76
2022/05/13 12:00:15;;;;;;;1.10;0.20;;;20.50;70.20;;;;;;5034437;28;20027;-76
2022/05/13 12:02:56;;;;;;;0.30;0.00;;;20.30;66.80;;;;;;5035154;28;20033;-76
2022/05/13 12:05:21;;;;;;;3.42;0.00;;;20.30;66.70;;;;;;5033652;28;20036;-76
2022/05/13 12:08:10;;;;;;;2.25;0.00;;;20.10;64.50;;;;;;5034798;28;20022;-76
2022/05/13 12:10:40;;;;;;;;;;;20.20;68.10;;;;;;5028510;28;20120;-76
2022/05/13 12:13:13;;;;;;;0.55;0.00;;;20.30;70.60;;;;;;5033386;28;19913;-76
2022/05/13 12:16:18;;;;;;;3.05;0.20;;;20.40;69.50;;;;;;5035837;28;20025;-76
2022/05/13 12:18:47;;;;;;;1.45;0.20;;;20.00;67.20;;;;;;5033508;28;20024;-76
2022/05/13 12:21:28;;;;;;;3.83;0.63;;;19.80;71.30;;;;;;5034612;28;20108;-76
2022/05/13 12:24:15;;;;;;;0.73;0.00;;;20.10;71.10;;;;;;5034565;28;20373;-76
2022/05/13 12:27:11;;;;;;;2.38;0.22;;;20.00;69.00;;;;;;5034351;28;20033;-76
2022/05/13 12:30:11;;;;;;;1.33;0.00;;;20.10;74.50;;;;;;5033465;28;20112;-76
2022/05/13 12:32:37;;;;;;;3.70;0.10;;;19.90;70.70;;;;;;4999602;28;20116;-76
2022/05/13 12:38:01;;;;;;;2.10;0.00;;;19.70;70.70;;;;;;5034356;28;20084;-76
2022/05/13 12:40:36;;;;;;;1.58;0.20;;;19.40;72.80;;;;;;5033048;28;20025;-77
2022/05/13 12:43:25;;;;;;;2.28;0.00;;;19.50;76.10;;;;;;5034119;28;20018;-76
2022/05/13 12:46:03;;;;;;;5.00;0.25;;;19.50;73.50;;;;;;5028556;28;20092;-76
2022/05/13 12:48:29;;;;;;;1.40;0.10;;;19.60;74.20;;;;;;5032763;28;20041;-76
2022/05/13 12:51:18;;;;;;;0.98;0.05;;;19.80;73.40;;;;;;5033774;28;20283;-76
2022/05/13 12:54:06;;;;;;;4.00;0.60;;;19.60;70.80;;;;;;5029414;28;20025;-76
2022/05/13 12:56:36;;;;;;;2.08;0.13;;;19.90;74.40;;;;;;5021931;28;20029;-76
2022/05/13 12:59:22;;;;;;;0.98;0.00;;;20.10;73.70;;;;;;5033168;28;20151;-76
2022/05/13 13:01:53;;;;;;;2.80;0.00;;;20.10;72.30;;;;;;5031699;28;20036;-76
2022/05/13 13:04:25;;;;;;;1.98;0.08;;;20.30;67.30;;;;;;5032044;28;20036;-76
2022/05/13 13:06:52;;;;;;;3.78;0.00;;;20.50;74.00;;;;;;5031786;28;20025;-76
2022/05/13 13:09:24;;;;;;;1.70;0.10;;;20.50;68.40;;;;;;5032798;28;20119;-76
2022/05/13 13:12:05;;;;;;;3.03;0.20;;;20.30;67.80;;;;;;5030987;28;20032;-76
2022/05/13 13:14:55;;;;;;;0.45;0.20;;;20.00;69.30;;;;;;5027017;28;20088;-76
2022/05/13 13:17:39;;;;;;;6.00;0.65;;;20.30;69.60;;;;;;5031353;28;20014;-76
2022/05/13 13:20:07;;;;;;;1.13;0.10;;;20.10;67.90;;;;;;5031106;28;20048;-76
2022/05/13 13:22:40;;;;;;;2.15;0.00;;;20.00;69.90;;;;;;5030810;28;20025;-76
2022/05/13 13:25:32;;;;;;;2.10;0.10;;;20.20;70.00;;;;;;5016950;28;20057;-76
2022/05/13 13:28:04;;;;;;;3.03;0.17;;;20.20;73.60;;;;;;5016983;28;20029;-76
2022/05/13 13:30:31;;;;;;;4.15;0.52;;;20.30;69.20;;;;;;5033112;28;20468;-76